Time;durP1;ratioP1;P1;durP2;ratioP2;P2;SDS_P1;SDS_P2;PMS_P1;PMS_P2;Temp;Humidity;BMP_temperature;BMP_pressure;BME280_temperature;BME280_humidity;BME280_pressure;Samples;Min_cycle;Max_cycle;Signal;HPM_P1;HPM_P2
2022/04/23 00:00:50;;;;;;;19.53;15.60;;;;;;;10.26;76.53;95045.16;5075660;28;20221;-53
2022/04/23 00:03:18;;;;;;;17.03;15.50;;;;;;;10.28;77.06;95040.50;5075851;28;20217;-53
2022/04/23 00:05:46;;;;;;;15.63;14.23;;;;;;;10.33;76.73;95039.97;5067436;28;20701;-52
2022/04/23 00:08:14;;;;;;;16.83;15.23;;;;;;;10.32;76.10;95043.59;5075948;28;20225;-53
2022/04/23 00:10:40;;;;;;;16.10;14.70;;;;;;;10.26;76.91;95033.78;5071261;28;20206;-52
2022/04/23 00:13:10;;;;;;;15.13;13.73;;;;;;;10.28;77.02;95037.88;5082443;28;20208;-52
2022/04/23 00:15:40;;;;;;;17.27;14.07;;;;;;;10.31;76.61;95032.22;5098073;28;20202;-53
2022/04/23 00:18:08;;;;;;;16.90;15.40;;;;;;;10.29;76.49;95033.41;5084357;28;20202;-53
2022/04/23 00:20:36;;;;;;;17.00;15.47;;;;;;;10.24;77.42;95036.56;5084537;28;20202;-53
2022/04/23 00:23:07;;;;;;;17.07;15.47;;;;;;;10.27;77.50;95030.94;5073032;28;20202;-54
2022/04/23 00:25:37;;;;;;;15.30;13.90;;;;;;;10.32;77.34;95033.88;5070722;28;20206;-53
2022/04/23 00:28:04;;;;;;;16.17;14.53;;;;;;;10.37;76.94;95038.63;5066699;28;20275;-53
2022/04/23 00:30:32;;;;;;;16.53;14.93;;;;;;;10.37;77.42;95035.97;5066125;28;20503;-54
2022/04/23 00:32:58;;;;;;;15.77;14.37;;;;;;;10.40;76.97;95038.25;5079468;28;20210;-53
2022/04/23 00:35:25;;;;;;;15.70;14.40;;;;;;;10.40;77.49;95040.91;5082862;28;20268;-54
2022/04/23 00:37:52;;;;;;;15.80;14.33;;;;;;;10.37;78.75;95033.34;5075448;28;20627;-54
2022/04/23 00:40:21;;;;;;;16.60;15.03;;;;;;;10.46;78.69;95037.50;5074843;28;20256;-54
2022/04/23 00:42:51;;;;;;;16.60;15.10;;;;;;;10.50;78.39;95041.44;5092528;28;20196;-54
2022/04/23 00:45:18;;;;;;;15.50;14.13;;;;;;;10.55;78.13;95043.56;5115119;28;20186;-53
2022/04/23 00:47:45;;;;;;;16.83;15.07;;;;;;;10.58;77.94;95038.72;5084244;28;20318;-53
2022/04/23 00:50:12;;;;;;;17.40;15.90;;;;;;;10.62;78.13;95037.34;5072830;28;20206;-53
2022/04/23 00:52:38;;;;;;;16.50;15.10;;;;;;;10.63;78.25;95040.81;5071077;28;20202;-54
2022/04/23 00:55:11;;;;;;;18.20;16.40;;;;;;;10.62;78.41;95028.59;5076017;28;20214;-54
2022/04/23 00:57:40;;;;;;;17.80;16.17;;;;;;;10.64;78.49;95043.28;5067753;28;20601;-53
2022/04/23 01:00:10;;;;;;;18.67;16.97;;;;;;;10.66;78.23;95041.28;5075457;28;20209;-54
2022/04/23 01:02:40;;;;;;;17.67;16.10;;;;;;;10.70;77.85;95029.31;5075923;28;20221;-53
2022/04/23 01:05:08;;;;;;;18.50;16.53;;;;;;;10.78;76.83;95036.34;5075561;28;20224;-52
2022/04/23 01:07:38;;;;;;;18.43;16.63;;;;;;;10.76;77.67;95031.25;5074366;28;20238;-52
2022/04/23 01:10:10;;;;;;;18.30;16.60;;;;;;;10.70;77.78;95024.03;5075072;28;20209;-53
2022/04/23 01:12:37;;;;;;;19.27;17.57;;;;;;;10.65;78.02;95022.94;5067856;28;20532;-53
2022/04/23 01:15:09;;;;;;;18.37;16.43;;;;;;;10.65;77.55;95023.78;5075068;28;20201;-54
2022/04/23 01:17:37;;;;;;;19.43;17.47;;;;;;;10.63;77.59;95020.47;5073780;28;20241;-53
2022/04/23 01:20:10;;;;;;;18.50;16.70;;;;;;;10.59;78.65;95029.81;5074995;28;20220;-54
2022/04/23 01:22:38;;;;;;;19.13;17.33;;;;;;;10.54;77.89;95023.41;5071137;28;20506;-53
2022/04/23 01:25:07;;;;;;;19.83;17.83;;;;;;;10.48;77.69;95024.97;5065718;28;20547;-53
2022/04/23 01:27:35;;;;;;;20.37;17.33;;;;;;;10.47;78.07;95025.94;5076507;28;20230;-53
2022/04/23 01:30:04;;;;;;;18.03;16.40;;;;;;;10.44;78.63;95028.97;5057613;28;20233;-54
2022/04/23 01:32:31;;;;;;;18.33;16.57;;;;;;;10.47;78.19;95023.31;5074388;28;20203;-53
2022/04/23 01:34:57;;;;;;;18.83;17.03;;;;;;;10.39;78.68;95028.69;5065093;28;20233;-54
2022/04/23 01:37:27;;;;;;;19.07;17.03;;;;;;;10.31;79.38;95020.81;5071655;28;20217;-53
2022/04/23 01:39:54;;;;;;;18.13;16.33;;;;;;;10.26;78.76;95013.47;5075075;28;20633;-52
2022/04/23 01:42:22;;;;;;;18.10;16.50;;;;;;;10.29;78.90;95012.28;5074447;28;20211;-53
2022/04/23 01:44:50;;;;;;;18.23;16.63;;;;;;;10.29;78.65;95017.56;5075213;28;20638;-54
2022/04/23 01:47:20;;;;;;;18.57;16.87;;;;;;;10.27;77.71;95019.56;5074901;28;20237;-53
2022/04/23 01:49:46;;;;;;;18.33;16.67;;;;;;;10.20;77.84;95021.28;5074266;28;20594;-53
2022/04/23 01:52:16;;;;;;;17.73;16.23;;;;;;;10.18;78.58;95023.28;5074022;28;20315;-53
2022/04/23 01:54:52;;;;;;;18.63;16.73;;;;;;;10.19;78.85;95022.28;5076319;28;20222;-53
2022/04/23 01:57:19;;;;;;;18.37;16.57;;;;;;;10.23;78.33;95029.69;5073449;28;20193;-54
2022/04/23 01:59:45;;;;;;;18.67;16.90;;;;;;;10.22;79.28;95037.75;5076276;28;20216;-53
2022/04/23 02:02:11;;;;;;;17.57;16.07;;;;;;;10.23;78.77;95034.97;5076771;28;20221;-52
2022/04/23 02:04:39;;;;;;;17.60;16.07;;;;;;;10.23;79.39;95034.13;5067043;28;20209;-53
2022/04/23 02:07:07;;;;;;;16.90;15.30;;;;;;;10.25;79.07;95030.31;5077153;28;20682;-52
2022/04/23 02:09:34;;;;;;;18.27;16.67;;;;;;;10.26;78.58;95033.78;5076957;28;20224;-53
2022/04/23 02:12:03;;;;;;;17.53;15.90;;;;;;;10.27;78.22;95024.84;5083432;28;20224;-52
2022/04/23 02:14:29;;;;;;;17.60;15.83;;;;;;;10.20;79.03;95029.22;5094944;28;20197;-53
2022/04/23 02:16:56;;;;;;;17.50;15.87;;;;;;;10.17;78.75;95024.25;5098021;28;20189;-53
2022/04/23 02:19:24;;;;;;;17.23;15.63;;;;;;;10.23;78.66;95023.56;5098390;28;20212;-52
2022/04/23 02:21:51;;;;;;;17.47;15.77;;;;;;;10.21;78.80;95023.75;5096603;28;20202;-53
2022/04/23 02:24:18;;;;;;;17.37;15.70;;;;;;;10.14;79.19;95024.59;5095232;28;20214;-53
2022/04/23 02:26:46;;;;;;;17.13;15.53;;;;;;;10.15;79.46;95023.63;5079251;28;20627;-52
2022/04/23 02:29:15;;;;;;;16.57;15.00;;;;;;;10.19;79.24;95027.56;5101207;28;20225;-52
2022/04/23 02:31:43;;;;;;;17.37;15.77;;;;;;;10.19;79.49;95024.94;5079946;28;20285;-53
2022/04/23 02:34:10;;;;;;;17.87;16.10;;;;;;;10.13;79.64;95028.25;5072058;28;20293;-52
2022/04/23 02:36:38;;;;;;;16.73;15.13;;;;;;;10.15;79.98;95021.81;5066178;28;20214;-52
2022/04/23 02:39:07;;;;;;;16.90;15.40;;;;;;;10.17;79.79;95018.97;5072723;28;20669;-53
2022/04/23 02:41:35;;;;;;;17.27;15.27;;;;;;;10.14;79.37;95024.59;5066488;28;20662;-52
2022/04/23 02:44:03;;;;;;;16.33;14.77;;;;;;;10.15;79.82;95018.34;5063472;28;20222;-54
2022/04/23 02:46:33;;;;;;;16.47;14.97;;;;;;;10.14;80.19;95021.97;5074077;28;20309;-53
2022/04/23 02:49:00;;;;;;;16.60;15.10;;;;;;;10.14;79.34;95012.25;5073986;28;20221;-53
2022/04/23 02:51:27;;;;;;;16.90;15.13;;;;;;;10.15;79.19;95010.44;5073622;28;20225;-52
2022/04/23 02:53:54;;;;;;;16.93;15.33;;;;;;;10.15;79.26;95010.44;5073330;28;20662;-54
2022/04/23 02:56:26;;;;;;;15.53;14.23;;;;;;;10.07;80.23;95018.41;5072849;28;20544;-51
2022/04/23 02:58:54;;;;;;;16.60;14.97;;;;;;;10.09;79.49;95011.13;5074103;28;20301;-52
2022/04/23 03:01:22;;;;;;;15.83;14.40;;;;;;;10.07;80.52;95015.75;5073527;28;20211;-53
2022/04/23 03:03:54;;;;;;;16.23;14.57;;;;;;;10.03;80.34;95012.66;5091746;28;20195;-52
2022/04/23 03:06:22;;;;;;;16.93;15.23;;;;;;;10.07;79.96;95013.94;5100617;28;20213;-53
2022/04/23 03:08:49;;;;;;;16.50;15.00;;;;;;;10.04;79.96;95013.47;5101424;28;20210;-52
2022/04/23 03:11:15;;;;;;;16.67;15.17;;;;;;;9.94;79.97;95014.56;5085961;28;20195;-52
2022/04/23 03:13:43;;;;;;;17.47;15.47;;;;;;;9.90;80.84;95012.44;5079099;28;20222;-52
2022/04/23 03:16:13;;;;;;;17.00;15.40;;;;;;;9.82;81.54;95015.97;5077883;28;20202;-53
2022/04/23 03:18:40;;;;;;;16.93;15.43;;;;;;;9.78;80.99;95006.75;5069471;28;20202;-52
2022/04/23 03:21:09;;;;;;;16.97;15.33;;;;;;;9.81;80.96;94998.50;5074532;28;20202;-53
2022/04/23 03:23:37;;;;;;;16.80;15.23;;;;;;;9.87;80.71;95008.34;5061843;28;20199;-52
2022/04/23 03:26:05;;;;;;;15.67;14.27;;;;;;;9.86;80.30;95004.06;5075982;28;20202;-52
2022/04/23 03:28:31;;;;;;;16.67;15.13;;;;;;;9.90;79.91;94997.44;5069273;28;20711;-52
2022/04/23 03:30:57;;;;;;;17.30;15.60;;;;;;;9.84;79.42;95003.44;5067542;28;20210;-52
2022/04/23 03:33:25;;;;;;;16.67;14.97;;;;;;;9.76;79.99;95000.84;5077433;28;20220;-52
2022/04/23 03:35:52;;;;;;;16.73;15.17;;;;;;;9.79;79.95;95003.13;5076902;28;20244;-54
2022/04/23 03:38:20;;;;;;;16.63;15.13;;;;;;;9.80;79.97;95004.78;5076507;28;20202;-53
2022/04/23 03:40:53;;;;;;;15.97;14.53;;;;;;;9.74;80.26;95010.75;5077121;28;20540;-52
2022/04/23 03:43:20;;;;;;;16.17;14.73;;;;;;;9.74;79.81;95008.13;5072487;28;20527;-53
2022/04/23 03:45:47;;;;;;;16.67;15.17;;;;;;;9.67;80.17;94998.47;5075134;28;20210;-53
2022/04/23 03:48:14;;;;;;;16.03;14.50;;;;;;;9.66;79.64;94995.00;5095952;28;20237;-53
2022/04/23 03:50:41;;;;;;;16.50;14.90;;;;;;;9.59;80.03;94999.34;5075915;28;20252;-54
2022/04/23 03:53:07;;;;;;;16.60;14.90;;;;;;;9.58;79.98;94992.44;5076823;28;20214;-52
2022/04/23 03:55:37;;;;;;;17.17;15.47;;;;;;;9.63;79.81;94994.53;5072982;28;20206;-53
2022/04/23 03:58:03;;;;;;;15.97;14.33;;;;;;;9.55;80.27;94997.25;5070865;28;20208;-53
2022/04/23 04:00:32;;;;;;;16.63;15.13;;;;;;;9.59;79.85;94996.72;5071987;28;20209;-53
2022/04/23 04:02:59;;;;;;;15.80;14.37;;;;;;;9.58;80.35;95000.34;5070853;28;20631;-53
2022/04/23 04:05:28;;;;;;;15.43;14.03;;;;;;;9.48;80.45;95002.41;5076942;28;20206;-53
2022/04/23 04:07:55;;;;;;;15.97;14.57;;;;;;;9.39;82.40;94998.16;5076164;28;20321;-53
2022/04/23 04:10:22;;;;;;;16.93;15.33;;;;;;;9.41;81.31;94998.81;5073306;28;20202;-53
2022/04/23 04:12:51;;;;;;;17.83;16.23;;;;;;;9.37;82.02;94994.91;5063075;28;20212;-52
2022/04/23 04:15:20;;;;;;;17.47;15.87;;;;;;;9.37;82.00;95005.44;5086411;28;20232;-52
2022/04/23 04:17:49;;;;;;;17.33;15.73;;;;;;;9.40;81.40;94999.81;5092901;28;20225;-53
2022/04/23 04:20:17;;;;;;;17.03;15.13;;;;;;;9.40;81.30;94999.81;5078963;28;20175;-53
2022/04/23 04:22:45;;;;;;;16.80;15.30;;;;;;;9.46;81.12;95009.66;5072960;28;20201;-52
2022/04/23 04:25:17;;;;;;;16.73;15.13;;;;;;;9.48;81.15;95005.88;5067377;28;20264;-53
2022/04/23 04:27:44;;;;;;;17.10;15.50;;;;;;;9.43;82.15;95004.72;5075389;28;20241;-53
2022/04/23 04:30:13;;;;;;;17.17;15.57;;;;;;;9.50;81.99;95009.13;5074901;28;20249;-53
2022/04/23 04:32:42;;;;;;;16.47;14.97;;;;;;;9.52;81.68;95003.69;5075222;28;20218;-52
2022/04/23 04:35:10;;;;;;;17.50;15.90;;;;;;;9.52;81.28;95003.69;5069222;28;20379;-52
2022/04/23 04:37:39;;;;;;;16.83;15.37;;;;;;;9.52;82.42;95001.06;5075560;28;20238;-52
2022/04/23 04:40:09;;;;;;;16.93;15.23;;;;;;;9.59;80.59;95002.00;5066832;28;20214;-53
2022/04/23 04:42:35;;;;;;;17.07;15.47;;;;;;;9.64;80.21;94997.00;5066164;28;20628;-52
2022/04/23 04:45:02;;;;;;;16.57;15.03;;;;;;;9.65;80.50;95006.56;5067325;28;20210;-53
2022/04/23 04:47:32;;;;;;;17.77;16.00;;;;;;;9.69;80.09;95007.84;5075028;28;20227;-53
2022/04/23 04:49:58;;;;;;;16.63;15.23;;;;;;;9.67;80.84;95015.09;5074867;28;20214;-52
2022/04/23 04:52:30;;;;;;;16.67;15.07;;;;;;;9.65;81.46;95013.66;5070294;28;20651;-52
2022/04/23 04:54:57;;;;;;;16.73;15.33;;;;;;;9.74;81.16;95012.59;5073826;28;20563;-53
2022/04/23 04:57:25;;;;;;;18.37;16.50;;;;;;;9.83;79.01;95008.88;5075251;28;20217;-52
2022/04/23 04:59:54;;;;;;;18.10;16.33;;;;;;;9.82;78.04;95010.69;5062755;28;20290;-52
2022/04/23 05:02:21;;;;;;;16.47;14.97;;;;;;;9.90;78.17;95013.28;5073854;28;20220;-52
2022/04/23 05:04:49;;;;;;;17.77;16.07;;;;;;;9.89;78.65;95011.63;5079158;28;20221;-54
2022/04/23 05:07:16;;;;;;;17.37;15.87;;;;;;;10.00;77.72;95021.75;5072995;28;20218;-53
2022/04/23 05:09:43;;;;;;;18.20;16.50;;;;;;;10.01;77.32;95025.22;5070915;28;20517;-53
2022/04/23 05:12:10;;;;;;;17.73;16.10;;;;;;;10.02;76.97;95020.78;5074644;28;20206;-54
2022/04/23 05:14:38;;;;;;;17.90;16.07;;;;;;;10.02;77.26;95025.03;5075078;28;20214;-52
2022/04/23 05:17:05;;;;;;;17.47;15.77;;;;;;;10.11;77.89;95033.72;5074760;28;20213;-52
2022/04/23 05:19:31;;;;;;;17.53;15.87;;;;;;;10.17;77.05;95029.56;5074479;28;20205;-53
2022/04/23 05:21:59;;;;;;;19.07;17.07;;;;;;;10.14;76.78;95036.03;5071481;28;20217;-53
2022/04/23 05:24:26;;;;;;;18.23;16.63;;;;;;;10.18;76.29;95039.13;5065557;28;20214;-51
2022/04/23 05:26:54;;;;;;;18.27;16.50;;;;;;;10.19;76.27;95032.84;5074446;28;20210;-52
2022/04/23 05:29:22;;;;;;;18.77;16.87;;;;;;;10.28;75.96;95034.41;5096762;28;20202;-52
2022/04/23 05:31:49;;;;;;;17.67;16.13;;;;;;;10.31;76.41;95028.75;5102672;28;20202;-52
2022/04/23 05:34:17;;;;;;;18.37;16.67;;;;;;;10.29;76.05;95039.50;5109511;28;20295;-52
2022/04/23 05:36:44;;;;;;;18.53;16.77;;;;;;;10.35;77.13;95040.59;5080209;28;20206;-54
2022/04/23 05:39:17;;;;;;;18.67;16.87;;;;;;;10.37;75.95;95043.91;5076718;28;20208;-54
2022/04/23 05:41:44;;;;;;;18.77;17.07;;;;;;;10.35;75.51;95037.97;5075493;28;20210;-53
2022/04/23 05:44:11;;;;;;;18.33;16.53;;;;;;;10.37;75.86;95039.44;5075114;28;20217;-53
2022/04/23 05:46:41;;;;;;;19.40;17.60;;;;;;;10.36;75.81;95039.59;5073333;28;20206;-52
2022/04/23 05:49:07;;;;;;;19.47;17.73;;;;;;;10.45;75.00;95039.34;5080172;28;20570;-53
2022/04/23 05:51:34;;;;;;;19.77;17.07;;;;;;;10.39;76.36;95044.53;5072472;28;20232;-53
2022/04/23 05:54:00;;;;;;;20.03;18.20;;;;;;;10.42;77.09;95054.72;5073883;28;20222;-52
2022/04/23 05:56:30;;;;;;;19.13;17.40;;;;;;;10.47;76.11;95050.56;5074554;28;20606;-52
2022/04/23 05:58:57;;;;;;;18.53;16.93;;;;;;;10.53;77.96;95056.94;5071046;28;20660;-52
2022/04/23 06:01:23;;;;;;;19.67;17.77;;;;;;;10.55;76.67;95056.75;5066376;28;20214;-53
2022/04/23 06:03:51;;;;;;;19.07;17.23;;;;;;;10.64;75.80;95056.47;5066726;28;20220;-53
2022/04/23 06:06:22;;;;;;;19.20;17.37;;;;;;;10.57;75.45;95060.84;5069999;28;20237;-52
2022/04/23 06:08:52;;;;;;;20.23;18.20;;;;;;;10.56;75.95;95059.22;5072603;28;20222;-55
2022/04/23 06:11:21;;;;;;;19.60;17.70;;;;;;;10.60;76.03;95063.13;5074365;28;20202;-53
2022/04/23 06:13:49;;;;;;;19.80;18.00;;;;;;;10.53;75.95;95054.28;5074753;28;20233;-53
2022/04/23 06:16:16;;;;;;;19.90;18.00;;;;;;;10.54;75.32;95053.28;5074091;28;20218;-52
2022/04/23 06:18:45;;;;;;;20.33;18.43;;;;;;;10.57;76.06;95052.94;5073875;28;20199;-53
2022/04/23 06:21:14;;;;;;;20.50;17.87;;;;;;;10.63;76.23;95054.03;5067598;28;20206;-52
2022/04/23 06:23:41;;;;;;;19.03;17.23;;;;;;;10.71;76.18;95057.41;5066114;28;20502;-53
2022/04/23 06:26:08;;;;;;;20.07;18.17;;;;;;;10.75;76.52;95063.13;5073868;28;20213;-53
2022/04/23 06:28:34;;;;;;;21.20;19.17;;;;;;;10.74;75.66;95062.31;5065395;28;20227;-53
2022/04/23 06:31:02;;;;;;;21.20;19.07;;;;;;;10.80;76.06;95058.97;5073550;28;20825;-53
2022/04/23 06:33:28;;;;;;;21.03;19.00;;;;;;;10.73;75.09;95063.34;5075903;28;20540;-53
2022/04/23 06:35:55;;;;;;;21.40;18.57;;;;;;;10.58;75.94;95066.97;5078541;28;20256;-53
2022/04/23 06:38:21;;;;;;;20.03;18.00;;;;;;;10.53;76.23;95066.69;5087436;28;20219;-52
2022/04/23 06:40:48;;;;;;;24.53;18.93;;;;;;;10.60;76.44;95060.50;5073631;28;20214;-53
2022/04/23 06:43:15;;;;;;;20.70;18.80;;;;;;;10.64;75.90;95063.59;5067348;28;20210;-53
2022/04/23 06:45:46;;;;;;;20.57;18.50;;;;;;;10.65;76.91;95066.06;5077307;28;20576;-53
2022/04/23 06:48:15;;;;;;;20.73;18.83;;;;;;;10.63;76.48;95067.25;5077546;28;20230;-52
2022/04/23 06:50:42;;;;;;;21.93;19.83;;;;;;;10.66;76.20;95066.88;5077016;28;20216;-53
2022/04/23 06:53:08;;;;;;;22.87;20.57;;;;;;;10.69;75.43;95075.28;5067734;28;20210;-53
2022/04/23 06:55:36;;;;;;;22.10;19.87;;;;;;;10.75;75.55;95071.91;5081337;28;20227;-53
2022/04/23 06:58:03;;;;;;;21.83;19.77;;;;;;;10.69;75.74;95069.16;5080185;28;20213;-52
2022/04/23 07:00:30;;;;;;;21.33;19.33;;;;;;;10.73;76.09;95057.22;5077603;28;20233;-53
2022/04/23 07:02:57;;;;;;;21.67;19.57;;;;;;;10.76;75.90;95062.97;5076911;28;20608;-54
2022/04/23 07:05:25;;;;;;;20.33;18.53;;;;;;;10.73;75.43;95055.41;5074352;28;20206;-53
2022/04/23 07:07:57;;;;;;;21.77;19.70;;;;;;;10.87;75.91;95065.16;5087465;28;20241;-54
2022/04/23 07:10:27;;;;;;;21.63;19.53;;;;;;;10.98;74.85;95064.69;5077228;28;20242;-53
2022/04/23 07:12:55;;;;;;;22.93;20.47;;;;;;;10.97;74.77;95065.69;5071276;28;20572;-54
2022/04/23 07:15:23;;;;;;;22.80;20.70;;;;;;;10.97;75.42;95059.59;5071717;28;20215;-51
2022/04/23 07:17:50;;;;;;;21.47;19.47;;;;;;;11.11;75.20;95060.56;5075117;28;20627;-53
2022/04/23 07:20:19;;;;;;;21.80;19.70;;;;;;;11.22;75.29;95063.56;5077612;28;20224;-54
2022/04/23 07:25:29;;;;;;;23.30;21.00;;;;;;;10.98;74.53;95069.97;5070969;28;20213;-53
2022/04/23 07:27:56;;;;;;;23.00;20.83;;;;;;;11.01;74.66;95060.88;5077544;28;20292;-53
2022/04/23 07:30:23;;;;;;;22.77;20.53;;;;;;;11.09;75.59;95073.97;5067010;28;20199;-54
2022/04/23 07:32:50;;;;;;;21.80;19.60;;;;;;;11.04;75.41;95076.38;5075083;28;20218;-53
2022/04/23 07:38:11;;;;;;;23.50;21.07;;;;;;;10.93;75.74;95088.22;5072842;28;20205;-53
2022/04/23 07:40:41;;;;;;;23.20;21.00;;;;;;;11.07;76.03;95080.44;5064670;28;20217;-54
2022/04/23 07:43:14;;;;;;;23.37;21.07;;;;;;;11.05;75.71;95082.47;5076630;28;20300;-53
2022/04/23 07:45:45;;;;;;;22.93;20.73;;;;;;;11.01;75.67;95084.66;5072071;28;20706;-54
2022/04/23 07:48:14;;;;;;;22.80;20.60;;;;;;;11.05;75.89;95083.31;5076955;28;20728;-54
2022/04/23 07:50:42;;;;;;;23.83;21.57;;;;;;;11.08;76.08;95082.09;5078632;28;20210;-53
2022/04/23 07:53:11;;;;;;;24.43;21.90;;;;;;;11.16;75.22;95088.09;5100003;28;20265;-53
2022/04/23 07:55:41;;;;;;;24.10;21.80;;;;;;;11.13;75.84;95083.19;5099081;28;20205;-53
2022/04/23 07:58:11;;;;;;;25.00;22.57;;;;;;;11.14;76.02;95082.19;5091138;28;20213;-52
2022/04/23 08:00:40;;;;;;;23.30;21.00;;;;;;;11.34;76.08;95083.22;5082183;28;20641;-53
2022/04/23 08:03:08;;;;;;;23.33;21.03;;;;;;;11.34;75.76;95085.88;5076894;28;20275;-52
2022/04/23 08:05:38;;;;;;;24.87;22.30;;;;;;;11.41;75.41;95084.13;5077481;28;20229;-54
2022/04/23 08:08:06;;;;;;;24.40;22.10;;;;;;;11.47;75.43;95087.88;5077214;28;20229;-54
2022/04/23 08:10:33;;;;;;;23.80;21.60;;;;;;;11.51;74.79;95078.56;5083149;28;20216;-53
2022/04/23 08:13:03;;;;;;;25.00;22.60;;;;;;;11.35;75.42;95078.78;5060922;28;20218;-52
2022/04/23 08:15:29;;;;;;;23.73;21.43;;;;;;;11.32;75.44;95089.72;5077039;28;20529;-54
2022/04/23 08:17:57;;;;;;;24.37;22.07;;;;;;;11.17;75.50;95087.09;5078920;28;20206;-52
2022/04/23 08:20:24;;;;;;;25.23;22.83;;;;;;;11.18;76.21;95082.63;5089951;28;20216;-52
2022/04/23 08:22:51;;;;;;;24.67;22.37;;;;;;;11.29;76.07;95085.63;5113084;28;20197;-54
2022/04/23 08:25:18;;;;;;;24.97;22.53;;;;;;;11.36;75.95;95085.72;5086529;28;20257;-53
2022/04/23 08:27:51;;;;;;;24.87;22.53;;;;;;;11.46;76.70;95078.28;5075088;28;20210;-54
2022/04/23 08:30:34;;;;;;;24.37;21.93;;;;;;;11.59;75.98;95086.38;5066436;28;20260;-52
2022/04/23 08:33:02;;;;;;;25.27;22.87;;;;;;;11.57;75.76;95082.28;5074360;28;20639;-52
2022/04/23 08:35:30;;;;;;;26.17;23.77;;;;;;;11.57;75.40;95077.81;5075659;28;20272;-53
2022/04/23 08:37:59;;;;;;;25.50;23.13;;;;;;;11.67;75.22;95080.16;5075348;28;20198;-54
2022/04/23 08:40:29;;;;;;;25.73;23.00;;;;;;;11.63;75.13;95103.53;5076811;28;20210;-54
2022/04/23 08:42:57;;;;;;;24.93;22.53;;;;;;;11.72;76.06;95094.50;5071441;28;20266;-53
2022/04/23 08:45:24;;;;;;;25.37;22.87;;;;;;;11.80;74.99;95090.91;5071282;28;20267;-54
2022/04/23 08:47:51;;;;;;;25.27;22.87;;;;;;;11.72;75.42;95091.88;5075793;28;20206;-54
2022/04/23 08:50:22;;;;;;;25.70;23.20;;;;;;;11.85;75.22;95084.03;5062843;28;20231;-53
2022/04/23 08:52:55;;;;;;;25.13;22.63;;;;;;;12.04;75.04;95085.25;5068180;28;20206;-54
2022/04/23 08:55:22;;;;;;;25.63;23.13;;;;;;;11.97;73.54;95090.47;5076842;28;20307;-54
2022/04/23 08:57:49;;;;;;;26.27;23.60;;;;;;;11.90;74.21;95083.47;5078660;28;20198;-53
2022/04/23 09:00:18;;;;;;;25.43;23.07;;;;;;;11.85;74.11;95081.41;5068436;28;20582;-54
2022/04/23 09:02:46;;;;;;;25.40;22.90;;;;;;;11.84;73.60;95093.00;5076680;28;20218;-54
2022/04/23 09:05:14;;;;;;;25.40;23.10;;;;;;;11.87;74.76;95089.97;5078554;28;20206;-54
2022/04/23 09:07:40;;;;;;;25.00;22.70;;;;;;;11.93;74.22;95089.22;5077837;28;20217;-53
2022/04/23 09:10:10;;;;;;;26.00;23.50;;;;;;;12.04;73.72;95082.59;5082860;28;20234;-54
2022/04/23 09:12:55;;;;;;;25.47;22.93;;;;;;;12.14;73.88;95080.44;5081068;28;20218;-53
2022/04/23 09:23:43;;;;;;;24.87;22.50;;;;;;;12.25;73.84;95089.72;5064779;28;20205;-54
2022/04/23 09:26:17;;;;;;;24.93;22.53;;;;;;;12.36;73.31;95086.53;5067863;28;20241;-53
2022/04/23 09:28:48;;;;;;;25.37;22.87;;;;;;;12.43;73.10;95092.72;5067062;28;20225;-53
2022/04/23 09:31:16;;;;;;;25.97;23.07;;;;;;;12.42;72.40;95089.25;5062976;28;20208;-54
2022/04/23 09:33:45;;;;;;;28.83;23.20;;;;;;;12.53;73.06;95089.72;5075290;28;20677;-54
2022/04/23 09:36:13;;;;;;;25.50;23.10;;;;;;;12.36;73.07;95094.50;5074798;28;20245;-53
2022/04/23 09:38:41;;;;;;;25.30;23.00;;;;;;;12.39;72.86;95094.09;5074212;28;20533;-53
2022/04/23 09:41:18;;;;;;;25.03;22.60;;;;;;;12.58;72.11;95101.38;5060901;28;20634;-53
2022/04/23 09:43:48;;;;;;;24.20;22.00;;;;;;;12.64;72.51;95108.59;5075144;28;20202;-53
2022/04/23 09:46:17;;;;;;;24.40;22.13;;;;;;;12.71;72.20;95098.84;5064727;28;20293;-53
2022/04/23 09:48:44;;;;;;;25.63;22.93;;;;;;;12.58;71.98;95104.03;5074053;28;20689;-54
2022/04/23 09:51:25;;;;;;;24.57;22.37;;;;;;;12.56;71.82;95106.06;5066309;28;20207;-54
2022/04/23 09:53:53;;;;;;;26.27;23.67;;;;;;;12.56;71.78;95111.38;5065308;28;20324;-54
2022/04/23 09:56:23;;;;;;;23.87;21.47;;;;;;;12.69;72.27;95108.81;5064246;28;20306;-54
2022/04/23 09:58:50;;;;;;;25.17;22.77;;;;;;;12.85;71.88;95102.41;5070076;28;20195;-54
2022/04/23 10:01:20;;;;;;;24.50;22.13;;;;;;;13.01;72.13;95103.91;5082836;28;20206;-53
2022/04/23 10:03:50;;;;;;;24.50;22.20;;;;;;;13.12;71.25;95100.75;5073170;28;20206;-54
2022/04/23 10:06:19;;;;;;;24.27;21.97;;;;;;;13.17;69.69;95108.94;5075113;28;20304;-54
2022/04/23 10:08:51;;;;;;;23.03;20.93;;;;;;;13.26;70.23;95107.75;5075051;28;20677;-54
2022/04/23 10:11:20;;;;;;;23.13;21.03;;;;;;;13.35;69.62;95096.78;5074443;28;20198;-53
2022/04/23 10:13:53;;;;;;;23.80;21.60;;;;;;;13.33;69.86;95108.59;5085608;28;20213;-53
2022/04/23 10:16:21;;;;;;;24.13;21.93;;;;;;;13.29;69.41;95105.53;5120315;28;20182;-58
2022/04/23 10:18:48;;;;;;;24.33;22.03;;;;;;;13.27;69.02;95107.56;5081920;28;20197;-52
2022/04/23 10:21:22;;;;;;;23.67;21.47;;;;;;;13.49;69.83;95110.13;5086988;28;20198;-54
2022/04/23 10:24:02;;;;;;;23.63;21.43;;;;;;;13.62;68.86;95116.28;5065406;28;20638;-53
2022/04/23 10:26:38;;;;;;;23.30;21.20;;;;;;;13.76;68.42;95117.97;5079061;28;20205;-54
2022/04/23 10:29:08;;;;;;;22.60;20.57;;;;;;;13.85;67.86;95122.09;5078450;28;20260;-53
2022/04/23 10:31:38;;;;;;;23.07;20.97;;;;;;;14.01;67.85;95112.94;5065552;28;20202;-53
2022/04/23 10:34:08;;;;;;;22.97;20.87;;;;;;;14.03;67.94;95112.75;5078324;28;20236;-53
2022/04/23 10:36:35;;;;;;;23.90;21.60;;;;;;;14.09;67.37;95104.78;5079131;28;20202;-53
2022/04/23 10:39:23;;;;;;;24.07;21.77;;;;;;;14.16;65.95;95110.94;5077793;28;20210;-53
2022/04/23 10:41:53;;;;;;;23.03;20.83;;;;;;;14.15;66.04;95119.91;5077570;28;20218;-52
2022/04/23 10:44:22;;;;;;;24.40;21.93;;;;;;;14.17;67.37;95106.44;5077990;28;20601;-53
2022/04/23 10:46:50;;;;;;;21.20;19.20;;;;;;;14.26;66.79;95111.34;5072623;28;20657;-53
2022/04/23 10:49:19;;;;;;;22.90;20.70;;;;;;;14.25;65.89;95115.00;5077691;28;20230;-54
2022/04/23 10:51:51;;;;;;;24.27;22.07;;;;;;;14.33;65.73;95114.84;5075328;28;20207;-54
2022/04/23 10:54:21;;;;;;;22.60;20.50;;;;;;;14.31;66.01;95114.19;5074571;28;20217;-53
2022/04/23 10:56:53;;;;;;;23.23;21.03;;;;;;;14.35;64.56;95107.50;5078551;28;20213;-52
2022/04/23 10:59:42;;;;;;;22.37;20.23;;;;;;;14.27;65.44;95114.81;5081154;28;20212;-54
2022/04/23 11:02:32;;;;;;;22.07;19.87;;;;;;;14.47;65.85;95112.19;5083788;28;20202;-53
2022/04/23 11:13:29;;;;;;;22.60;20.47;;;;;;;14.82;64.95;95109.13;5080014;28;20631;-53
2022/04/23 11:16:16;;;;;;;22.20;20.00;;;;;;;14.98;64.35;95101.75;5078052;28;20202;-52
2022/04/23 11:18:44;;;;;;;21.67;19.63;;;;;;;14.85;65.34;95095.41;5077761;28;20202;-53
2022/04/23 11:21:17;;;;;;;20.47;18.53;;;;;;;15.11;64.90;95101.72;5075223;28;20574;-54
2022/04/23 11:23:47;;;;;;;21.90;19.80;;;;;;;15.03;64.44;95097.41;5062102;28;20507;-54
2022/04/23 11:26:14;;;;;;;21.20;19.20;;;;;;;14.73;63.36;95094.41;5069990;28;20207;-54
2022/04/23 11:28:42;;;;;;;20.97;19.07;;;;;;;15.09;64.13;95101.91;5070994;28;20214;-53
2022/04/23 11:31:10;;;;;;;22.03;19.93;;;;;;;15.32;64.27;95099.59;5062801;28;20618;-54
2022/04/23 11:33:37;;;;;;;22.37;20.23;;;;;;;15.69;62.61;95098.06;5078487;28;20226;-53
2022/04/23 11:36:05;;;;;;;22.23;20.20;;;;;;;15.82;62.11;95087.34;5078206;28;20257;-53
2022/04/23 11:38:33;;;;;;;22.83;20.63;;;;;;;16.05;61.74;95088.66;5076126;28;20206;-51
2022/04/23 11:41:02;;;;;;;19.87;17.87;;;;;;;16.14;61.70;95095.38;5078264;28;20213;-53
2022/04/23 11:43:30;;;;;;;20.60;18.47;;;;;;;16.05;59.70;95094.00;5076728;28;20214;-52
2022/04/23 11:46:01;;;;;;;21.83;19.63;;;;;;;16.22;59.98;95081.78;5076050;28;20206;-53
2022/04/23 11:48:28;;;;;;;21.87;19.83;;;;;;;16.13;60.33;95085.72;5076403;28;20206;-53